createdAt,value
2019-04-22T00:03:10.683Z,100809.90
2019-04-22T00:08:30.934Z,100806.61
2019-04-22T00:13:25.960Z,100803.22
2019-04-22T00:18:19.931Z,100796.16
2019-04-22T00:23:13.244Z,100792.87
2019-04-22T00:28:15.756Z,100792.28
2019-04-22T00:33:08.014Z,100791.94
2019-04-22T00:38:12.829Z,100783.41
2019-04-22T00:43:11.324Z,100781.67
2019-04-22T00:48:09.241Z,100783.34
2019-04-22T00:53:04.561Z,100768.33
2019-04-22T00:57:54.642Z,100762.67
2019-04-22T01:02:54.576Z,100759.41
2019-04-22T01:07:49.179Z,100752.77
2019-04-22T01:12:44.389Z,100753.02
2019-04-22T01:17:43.516Z,100754.80
2019-04-22T01:22:32.972Z,100749.64
2019-04-22T01:27:22.205Z,100749.95
2019-04-22T01:32:13.177Z,100742.33
2019-04-22T01:37:19.762Z,100737.91
2019-04-22T01:42:18.741Z,100734.31
2019-04-22T01:47:21.283Z,100729.17
2019-04-22T01:52:15.461Z,100731.08
2019-04-22T01:57:03.641Z,100727.90
2019-04-22T02:02:09.268Z,100731.71
2019-04-22T02:07:03.217Z,100722.31
2019-04-22T02:12:00.225Z,100722.75
2019-04-22T02:16:56.163Z,100710.69
2019-04-22T02:21:48.803Z,100706.05
2019-04-22T02:26:49.912Z,100706.24
2019-04-22T02:31:45.338Z,100712.50
2019-04-22T02:36:45.154Z,100708.52
2019-04-22T03:06:29.580Z,100673.81
2019-04-22T03:11:12.483Z,100670.56
2019-04-22T03:16:17.738Z,100663.31
2019-04-22T03:26:11.480Z,100647.00
2019-04-22T03:32:01.956Z,100639.38
2019-04-22T03:37:03.612Z,100633.20
2019-04-22T03:41:39.301Z,100632.85
2019-04-22T03:46:21.450Z,100630.45
2019-04-22T03:51:26.861Z,100628.78
2019-04-22T03:56:18.808Z,100626.21
2019-04-22T04:01:19.711Z,100623.73
2019-04-22T04:06:06.647Z,100618.59
2019-04-22T04:10:53.513Z,100610.16
2019-04-22T04:15:53.547Z,100617.50
2019-04-22T04:21:09.037Z,100604.47
2019-04-22T04:30:36.589Z,100602.22
2019-04-22T04:45:40.002Z,100591.95
2019-04-22T04:50:27.321Z,100592.53
2019-04-22T05:15:11.605Z,100598.92
2019-04-22T05:20:07.357Z,100596.13
2019-04-22T05:24:59.776Z,100594.50
2019-04-22T05:30:08.811Z,100588.22
2019-04-22T05:34:48.622Z,100582.14
2019-04-22T05:39:43.658Z,100567.78
2019-04-22T05:44:44.071Z,100572.34
2019-04-22T05:49:31.259Z,100571.37
2019-04-22T05:59:28.884Z,100568.08
2019-04-22T06:04:39.115Z,100574.50
2019-04-22T06:09:20.539Z,100576.05
2019-04-22T06:14:14.981Z,100573.52
2019-04-22T06:19:16.818Z,100571.27
2019-04-22T06:24:10.869Z,100567.92
2019-04-22T06:29:01.336Z,100563.89
2019-04-22T06:34:02.312Z,100561.84
2019-04-22T06:38:55.282Z,100564.80
2019-04-22T06:43:51.474Z,100560.80
2019-04-22T06:48:43.992Z,100561.09
2019-04-22T06:53:40.561Z,100551.52
2019-04-22T06:58:36.578Z,100546.03
2019-04-22T07:13:32.013Z,100552.55
2019-04-22T07:18:28.730Z,100539.14
2019-04-22T07:23:21.445Z,100534.27
2019-04-22T07:28:11.233Z,100534.98
2019-04-22T07:38:04.677Z,100524.50
2019-04-22T07:43:02.514Z,100526.28
2019-04-22T07:47:58.946Z,100520.67
2019-04-22T07:52:45.013Z,100509.42
2019-04-22T07:57:39.256Z,100518.82
2019-04-22T08:02:38.008Z,100500.86
2019-04-22T08:07:36.304Z,100485.52
2019-04-22T08:12:36.014Z,100501.44
2019-04-22T08:17:45.138Z,100494.99
2019-04-22T08:22:14.225Z,100474.13
2019-04-22T08:27:15.433Z,100466.86
2019-04-22T08:32:15.067Z,100478.33
2019-04-22T08:37:36.590Z,100468.51
2019-04-22T08:41:57.604Z,100463.03
2019-04-22T08:47:04.744Z,100441.47
2019-04-22T08:51:59.027Z,100436.87
2019-04-22T08:56:56.948Z,100435.45
2019-04-22T09:01:41.940Z,100431.98
2019-04-22T09:07:06.028Z,100418.17
2019-04-22T09:11:41.774Z,100411.38
2019-04-22T09:16:37.325Z,100426.23
2019-04-22T09:21:32.634Z,100415.44
2019-04-22T09:26:30.696Z,100395.06
2019-04-22T09:31:19.616Z,100386.70
2019-04-22T09:36:23.025Z,100390.80
2019-04-22T09:41:13.954Z,100390.41
2019-04-22T09:46:19.188Z,100375.75
2019-04-22T09:51:09.829Z,100359.07
2019-04-22T09:56:05.881Z,100360.23
2019-04-22T10:01:38.587Z,100337.80
2019-04-22T10:11:24.029Z,100334.13
2019-04-22T10:16:10.465Z,100337.62
2019-04-22T10:21:12.330Z,100312.61
2019-04-22T10:25:59.111Z,100309.28
2019-04-22T10:30:52.207Z,100294.42
2019-04-22T10:35:30.303Z,100287.27
2019-04-22T10:40:50.303Z,100270.94
2019-04-22T10:45:44.280Z,100277.17
2019-04-22T10:50:41.335Z,100265.91
2019-04-22T10:55:35.104Z,100262.62
2019-04-22T11:00:29.323Z,100246.55
2019-04-22T11:05:24.081Z,100245.89
2019-04-22T11:10:35.131Z,100236.57
2019-04-22T11:15:13.934Z,100228.62
2019-04-22T11:20:07.986Z,100216.41
2019-04-22T11:25:01.480Z,100213.37
2019-04-22T11:29:55.423Z,100203.44
2019-04-22T11:34:49.110Z,100200.36
2019-04-22T11:39:42.655Z,100198.09
2019-04-22T11:44:37.150Z,100186.42
2019-04-22T11:49:32.009Z,100176.63
2019-04-22T11:54:25.365Z,100167.47
2019-04-22T11:59:18.781Z,100173.57
2019-04-22T12:04:13.707Z,100153.64
2019-04-22T12:09:12.194Z,100149.38
2019-04-22T12:14:06.227Z,100152.59
2019-04-22T12:19:00.865Z,100134.22
2019-04-22T12:23:55.006Z,100130.19
2019-04-22T12:28:51.070Z,100118.55
2019-04-22T12:33:45.396Z,100100.23
2019-04-22T12:38:39.893Z,100099.80
2019-04-22T12:43:33.694Z,100088.67
2019-04-22T12:48:27.540Z,100083.00
2019-04-22T12:53:24.105Z,100080.81
2019-04-22T12:58:16.219Z,100080.52
2019-04-22T13:03:11.055Z,100071.57
2019-04-22T13:08:07.453Z,100046.80
2019-04-22T13:13:00.961Z,100041.56
2019-04-22T13:18:06.070Z,100035.91
2019-04-22T13:22:50.562Z,100035.67
2019-04-22T13:27:44.892Z,100010.75
2019-04-22T13:32:38.822Z,100009.73
2019-04-22T13:37:32.755Z,100008.17
2019-04-22T13:42:27.580Z,99996.95
2019-04-22T13:47:34.990Z,99983.69
2019-04-22T13:52:48.589Z,99971.63
2019-04-22T13:57:32.623Z,99974.28
2019-04-22T14:02:46.474Z,99966.62
2019-04-22T14:07:41.166Z,99951.58
2019-04-22T14:12:35.305Z,99944.20
2019-04-22T14:17:31.488Z,99933.77
2019-04-22T14:22:26.263Z,99935.13
2019-04-22T14:27:31.766Z,99932.80
2019-04-22T14:32:19.331Z,99920.61
2019-04-22T14:37:10.242Z,99925.35
2019-04-22T14:42:27.016Z,99919.35
2019-04-22T14:47:19.875Z,99901.10
2019-04-22T14:52:16.401Z,99897.48
2019-04-22T14:56:49.279Z,99892.25
2019-04-22T15:01:43.521Z,99892.25
2019-04-22T15:06:38.038Z,99889.59
2019-04-22T15:11:44.870Z,99875.75
2019-04-22T15:16:42.588Z,99867.91
2019-04-22T15:21:36.716Z,99864.69
2019-04-22T15:26:30.689Z,99851.42
2019-04-22T15:31:24.311Z,99855.06
2019-04-22T15:36:18.065Z,99854.42
2019-04-22T15:41:12.505Z,99849.20
2019-04-22T15:46:09.669Z,99844.84
2019-04-22T15:51:04.703Z,99841.91
2019-04-22T15:55:58.800Z,99837.48
2019-04-22T16:01:04.186Z,99834.98
2019-04-22T16:05:50.101Z,99838.22
2019-04-22T16:10:43.992Z,99829.31
2019-04-22T16:15:38.379Z,99821.78
2019-04-22T16:20:32.179Z,99819.42
2019-04-22T16:25:49.447Z,99821.67
2019-04-22T16:30:43.596Z,99820.65
2019-04-22T16:35:37.074Z,99817.94
2019-04-22T16:40:30.565Z,99796.22
2019-04-22T16:45:25.293Z,99799.45
2019-04-22T16:50:18.984Z,99794.23
2019-04-22T16:55:12.877Z,99801.44
2019-04-22T17:00:08.899Z,99794.23
2019-04-22T17:05:11.529Z,99798.29
2019-04-22T17:10:08.068Z,99792.72
2019-04-22T17:15:06.134Z,99790.86
2019-04-22T17:19:57.685Z,99795.23
2019-04-22T17:24:51.208Z,99796.16
2019-04-22T17:29:44.573Z,99784.55
2019-04-22T17:34:39.263Z,99789.07
2019-04-22T17:39:45.366Z,99785.91
2019-04-22T17:44:57.108Z,99789.72
2019-04-22T17:49:57.937Z,99794.14
2019-04-22T17:54:43.438Z,99797.68
2019-04-22T17:59:45.219Z,99807.09
2019-04-22T18:04:16.615Z,99793.16
2019-04-22T18:09:57.942Z,99794.27
2019-04-22T18:19:21.233Z,99805.59
2019-04-22T18:24:09.340Z,99809.14
2019-04-22T18:29:16.136Z,99811.44
2019-04-22T18:34:04.105Z,99813.78
2019-04-22T18:39:10.087Z,99811.43
2019-04-22T18:44:06.173Z,99814.53
2019-04-22T18:48:58.144Z,99827.25
2019-04-22T18:54:19.735Z,99839.73
2019-04-22T18:59:07.733Z,99830.36
2019-04-22T19:03:58.222Z,99831.09
2019-04-22T19:09:10.562Z,99837.30
2019-04-22T19:14:07.484Z,99841.89
2019-04-22T19:19:21.209Z,99848.78
2019-04-22T19:23:53.999Z,99849.83
2019-04-22T19:28:49.484Z,99856.11
2019-04-22T19:33:49.294Z,99862.11
2019-04-22T19:38:28.646Z,99861.88
2019-04-22T19:43:35.618Z,99869.61
2019-04-22T19:53:32.091Z,99865.77
2019-04-22T19:58:18.257Z,99865.17
2019-04-22T20:03:42.717Z,99866.89
2019-04-22T20:08:30.236Z,99856.89
2019-04-22T20:13:33.529Z,99863.20
2019-04-22T20:23:15.910Z,99856.25
2019-04-22T20:28:15.051Z,99865.44
2019-04-22T20:33:06.408Z,99866.55
2019-04-22T20:38:04.247Z,99867.64
2019-04-22T20:43:01.685Z,99869.11
2019-04-22T20:47:48.999Z,99866.25
2019-04-22T20:57:49.525Z,99859.99
2019-04-22T21:02:32.616Z,99859.91
2019-04-22T21:07:32.514Z,99872.91
2019-04-22T21:12:27.782Z,99860.94
2019-04-22T21:17:31.171Z,99854.36
2019-04-22T21:22:27.398Z,99846.19
2019-04-22T21:27:45.638Z,99841.92
2019-04-22T21:32:21.743Z,99845.19
2019-04-22T21:37:33.024Z,99850.83
2019-04-22T21:42:14.233Z,99856.09
2019-04-22T21:47:14.582Z,99858.78
2019-04-22T21:52:05.400Z,99856.04
2019-04-22T22:02:11.776Z,99848.11
2019-04-22T22:06:54.566Z,99841.72
2019-04-22T22:11:52.623Z,99834.07
2019-04-22T22:16:47.335Z,99838.04
2019-04-22T22:22:05.979Z,99830.59
2019-04-22T22:26:44.868Z,99818.20
2019-04-22T22:31:47.269Z,99815.28
2019-04-22T22:36:31.081Z,99810.22
2019-04-22T22:41:10.081Z,99810.42
2019-04-22T22:46:17.748Z,99800.80
2019-04-22T22:51:32.541Z,99801.14
2019-04-22T22:56:18.135Z,99801.80
2019-04-22T23:01:04.198Z,99795.95
2019-04-22T23:06:12.457Z,99796.23
2019-04-22T23:11:05.091Z,99787.28
2019-04-22T23:15:50.759Z,99782.56
2019-04-22T23:20:38.249Z,99775.53
2019-04-22T23:25:54.989Z,99769.51
2019-04-22T23:30:58.045Z,99758.41
2019-04-22T23:36:23.704Z,99758.58
2019-04-22T23:46:28.471Z,99741.31
2019-04-22T23:51:26.474Z,99742.73
2019-04-22T23:56:27.005Z,99743.72
